createdAt,value
2019-02-22T00:00:22.914Z,3.57
2019-02-22T00:01:22.820Z,3.71
2019-02-22T00:02:22.843Z,3.82
2019-02-22T00:03:22.798Z,3.79
2019-02-22T00:04:22.791Z,3.82
2019-02-22T00:05:22.786Z,3.78
2019-02-22T00:06:22.803Z,3.76
2019-02-22T00:07:22.798Z,3.89
2019-02-22T00:08:22.758Z,3.88
2019-02-22T00:09:22.741Z,3.83
2019-02-22T00:10:22.740Z,3.80
2019-02-22T00:11:22.729Z,3.78
2019-02-22T00:12:22.735Z,3.82
2019-02-22T00:13:22.707Z,3.83
2019-02-22T00:14:22.696Z,3.79
2019-02-22T00:15:22.685Z,3.64
2019-02-22T00:16:22.666Z,3.72
2019-02-22T00:17:22.696Z,3.67
2019-02-22T00:18:22.652Z,3.68
2019-02-22T00:19:22.640Z,3.75
2019-02-22T00:20:22.629Z,3.65
2019-02-22T00:21:22.622Z,3.68
2019-02-22T00:22:22.634Z,3.72
2019-02-22T00:23:22.613Z,3.71
2019-02-22T00:24:22.587Z,3.71
2019-02-22T00:25:22.606Z,3.70
2019-02-22T00:26:22.562Z,3.67
2019-02-22T00:27:22.578Z,3.80
2019-02-22T00:28:22.546Z,3.86
2019-02-22T00:29:22.538Z,3.89
2019-02-22T00:30:22.522Z,3.86
2019-02-22T00:31:22.525Z,3.86
2019-02-22T00:32:22.555Z,3.92
2019-02-22T00:33:22.493Z,3.86
2019-02-22T00:34:22.583Z,3.85
2019-02-22T00:35:22.497Z,3.89
2019-02-22T00:36:22.561Z,3.85
2019-02-22T00:37:22.577Z,3.85
2019-02-22T00:38:22.446Z,3.92
2019-02-22T00:39:22.432Z,3.82
2019-02-22T00:40:22.419Z,3.86
2019-02-22T00:41:22.409Z,3.89
2019-02-22T00:42:22.424Z,3.86
2019-02-22T00:43:22.387Z,3.88
2019-02-22T00:44:22.393Z,3.85
2019-02-22T00:45:22.376Z,3.88
2019-02-22T00:46:22.353Z,3.88
2019-02-22T00:47:22.376Z,3.90
2019-02-22T00:48:22.338Z,3.86
2019-02-22T00:49:22.331Z,3.83
2019-02-22T00:50:22.318Z,3.90
2019-02-22T00:51:22.311Z,3.92
2019-02-22T00:52:22.326Z,3.92
2019-02-22T00:53:22.289Z,3.92
2019-02-22T00:54:22.284Z,3.96
2019-02-22T00:55:22.262Z,3.94
2019-02-22T00:56:22.254Z,3.92
2019-02-22T00:57:22.271Z,4.00
2019-02-22T00:58:22.234Z,3.92
2019-02-22T00:59:22.228Z,3.98
2019-02-22T01:00:22.233Z,3.97
2019-02-22T01:01:22.202Z,3.94
2019-02-22T01:02:22.220Z,3.94
2019-02-22T01:03:22.174Z,3.97
2019-02-22T01:04:22.170Z,3.90
2019-02-22T01:05:22.161Z,3.96
2019-02-22T01:06:22.155Z,3.89
2019-02-22T01:07:22.213Z,3.96
2019-02-22T01:08:22.133Z,3.90
2019-02-22T01:09:22.113Z,3.97
2019-02-22T01:10:30.738Z,3.92
2019-02-22T01:11:23.131Z,4.03
2019-02-22T01:12:22.168Z,4.03
2019-02-22T01:13:22.075Z,4.04
2019-02-22T01:14:22.068Z,4.04
2019-02-22T01:15:22.104Z,4.03
2019-02-22T01:16:22.042Z,4.01
2019-02-22T01:17:22.067Z,3.97
2019-02-22T01:18:22.022Z,3.94
2019-02-22T01:19:22.015Z,3.92
2019-02-22T01:20:22.007Z,3.94
2019-02-22T01:21:21.994Z,4.00
2019-02-22T01:22:21.985Z,4.00
2019-02-22T01:23:21.994Z,3.85
2019-02-22T01:24:21.973Z,3.80
2019-02-22T01:25:21.959Z,3.80
2019-02-22T01:26:21.958Z,3.78
2019-02-22T01:27:21.935Z,3.85
2019-02-22T01:28:21.964Z,3.78
2019-02-22T01:29:21.908Z,3.75
2019-02-22T01:30:21.903Z,3.82
2019-02-22T01:31:21.884Z,3.79
2019-02-22T01:32:21.878Z,3.80
2019-02-22T01:33:21.910Z,3.85
2019-02-22T01:34:21.862Z,3.86
2019-02-22T01:35:21.852Z,3.94
2019-02-22T01:36:22.042Z,3.92
2019-02-22T01:37:21.832Z,3.97
2019-02-22T01:38:21.852Z,3.96
2019-02-22T01:39:21.807Z,3.92
2019-02-22T01:40:21.804Z,3.89
2019-02-22T01:41:21.790Z,3.97
2019-02-22T01:42:21.782Z,3.98
2019-02-22T01:43:21.798Z,4.04
2019-02-22T01:44:21.904Z,4.06
2019-02-22T01:45:21.751Z,4.08
2019-02-22T01:46:21.748Z,4.07
2019-02-22T01:47:21.722Z,4.04
2019-02-22T01:48:21.760Z,4.08
2019-02-22T01:49:21.710Z,4.10
2019-02-22T01:50:21.705Z,4.04
2019-02-22T01:51:21.681Z,4.12
2019-02-22T01:52:21.682Z,4.08
2019-02-22T01:53:21.701Z,4.00
2019-02-22T01:54:21.648Z,4.15
2019-02-22T01:55:21.658Z,4.01
2019-02-22T01:56:21.626Z,4.14
2019-02-22T01:57:21.637Z,4.15
2019-02-22T01:58:21.641Z,4.14
2019-02-22T01:59:21.599Z,4.14
2019-02-22T02:00:21.610Z,4.08
2019-02-22T02:01:21.580Z,4.18
2019-02-22T02:02:21.573Z,4.18
2019-02-22T02:03:22.580Z,4.14
2019-02-22T02:04:21.549Z,4.15
2019-02-22T02:05:21.532Z,4.21
2019-02-22T02:06:21.530Z,4.24
2019-02-22T02:07:21.512Z,4.29
2019-02-22T02:08:21.581Z,4.28
2019-02-22T02:09:21.496Z,4.26
2019-02-22T02:10:21.492Z,4.29
2019-02-22T02:11:21.478Z,4.33
2019-02-22T02:12:21.466Z,4.29
2019-02-22T02:13:21.485Z,4.26
2019-02-22T02:14:21.446Z,4.33
2019-02-22T02:15:21.430Z,4.25
2019-02-22T02:16:21.420Z,4.29
2019-02-22T02:17:21.406Z,4.26
2019-02-22T02:18:21.441Z,4.29
2019-02-22T02:19:21.393Z,4.37
2019-02-22T02:20:21.400Z,4.37
2019-02-22T02:21:21.369Z,4.32
2019-02-22T02:22:21.375Z,4.33
2019-02-22T02:23:21.389Z,4.29
2019-02-22T02:24:21.345Z,4.26
2019-02-22T02:25:21.334Z,4.26
2019-02-22T02:26:21.323Z,4.15
2019-02-22T02:27:21.309Z,4.14
2019-02-22T02:28:21.329Z,4.08
2019-02-22T02:29:21.287Z,4.22
2019-02-22T02:30:21.276Z,4.18
2019-02-22T02:31:21.266Z,4.25
2019-02-22T02:32:21.261Z,4.08
2019-02-22T02:33:21.355Z,4.15
2019-02-22T02:34:21.239Z,4.14
2019-02-22T02:35:21.234Z,4.16
2019-02-22T02:36:21.215Z,4.12
2019-02-22T02:37:21.212Z,4.12
2019-02-22T02:38:21.225Z,4.14
2019-02-22T02:39:21.184Z,4.03
2019-02-22T02:40:21.172Z,4.12
2019-02-22T02:41:21.159Z,4.12
2019-02-22T02:42:21.151Z,4.14
2019-02-22T02:43:21.175Z,4.12
2019-02-22T02:44:21.134Z,4.00
2019-02-22T02:45:21.143Z,4.04
2019-02-22T02:46:21.123Z,4.08
2019-02-22T02:47:21.099Z,4.10
2019-02-22T02:48:21.157Z,4.10
2019-02-22T02:49:21.083Z,4.12
2019-02-22T02:50:21.098Z,4.12
2019-02-22T02:51:21.089Z,4.06
2019-02-22T02:52:21.051Z,4.08
2019-02-22T02:53:21.091Z,4.10
2019-02-22T02:54:21.027Z,4.08
2019-02-22T02:55:21.024Z,4.08
2019-02-22T02:56:21.008Z,4.07
2019-02-22T02:57:20.999Z,4.03
2019-02-22T02:58:20.983Z,4.19
2019-02-22T02:59:20.996Z,4.19
2019-02-22T03:00:21.031Z,4.15
2019-02-22T03:01:20.962Z,4.10
2019-02-22T03:02:20.970Z,4.06
2019-02-22T03:03:20.934Z,4.15
2019-02-22T03:04:20.931Z,4.16
2019-02-22T03:05:20.964Z,4.25
2019-02-22T03:06:20.897Z,4.26
2019-02-22T03:07:20.917Z,4.34
2019-02-22T03:08:20.882Z,4.37
2019-02-22T03:09:20.871Z,4.43
2019-02-22T03:10:21.231Z,4.34
2019-02-22T03:11:21.448Z,4.42
2019-02-22T03:12:21.043Z,4.52
2019-02-22T03:13:21.048Z,4.52
2019-02-22T03:14:21.283Z,4.50
2019-02-22T03:15:21.156Z,4.55
2019-02-22T03:16:21.030Z,4.52
2019-02-22T03:17:21.291Z,4.57
2019-02-22T03:18:21.327Z,4.57
2019-02-22T03:19:21.040Z,4.59
2019-02-22T03:20:21.014Z,4.64
2019-02-22T03:21:21.034Z,4.65
2019-02-22T03:22:21.010Z,4.70
2019-02-22T03:23:20.784Z,4.57
2019-02-22T03:24:20.833Z,4.61
2019-02-22T03:25:20.747Z,4.59
2019-02-22T03:26:20.747Z,4.55
2019-02-22T03:27:20.734Z,4.57
2019-02-22T03:28:20.726Z,4.52
2019-02-22T03:29:20.790Z,4.54
2019-02-22T03:30:20.797Z,4.52
2019-02-22T03:31:20.688Z,4.52
2019-02-22T03:32:20.689Z,4.43
2019-02-22T03:33:20.674Z,4.52
2019-02-22T03:34:20.742Z,4.43
2019-02-22T03:35:20.650Z,4.43
2019-02-22T03:36:20.742Z,4.42
2019-02-22T03:37:20.633Z,4.42
2019-02-22T03:38:20.607Z,4.46
2019-02-22T03:39:20.695Z,4.42
2019-02-22T03:40:20.669Z,4.42
2019-02-22T03:41:31.865Z,4.44
2019-02-22T03:42:21.568Z,4.42
2019-02-22T03:43:20.575Z,4.44
2019-02-22T03:44:20.555Z,4.50
2019-02-22T03:45:20.647Z,4.54
2019-02-22T03:46:20.530Z,4.46
2019-02-22T03:47:20.521Z,4.51
2019-02-22T03:48:20.520Z,4.61
2019-02-22T03:49:20.577Z,4.52
2019-02-22T03:50:20.503Z,4.55
2019-02-22T03:51:20.485Z,4.58
2019-02-22T03:52:20.460Z,4.59
2019-02-22T03:53:20.464Z,4.61
2019-02-22T03:54:20.537Z,4.55
2019-02-22T03:55:20.440Z,4.57
2019-02-22T03:56:20.435Z,4.59
2019-02-22T03:57:20.423Z,4.62
2019-02-22T03:58:20.427Z,4.55
2019-02-22T03:59:20.470Z,4.67
2019-02-22T04:00:20.396Z,4.64
2019-02-22T04:01:20.385Z,4.65
2019-02-22T04:02:20.370Z,4.73
2019-02-22T04:03:20.354Z,4.67
2019-02-22T04:04:20.413Z,4.75
2019-02-22T04:05:20.331Z,4.76
2019-02-22T04:06:20.313Z,4.69
2019-02-22T04:07:20.309Z,4.76
2019-02-22T04:08:20.312Z,4.73
2019-02-22T04:09:20.378Z,4.79
2019-02-22T04:10:20.378Z,4.76
2019-02-22T04:11:20.291Z,4.73
2019-02-22T04:12:20.273Z,4.72
2019-02-22T04:13:20.326Z,4.70
2019-02-22T04:14:20.243Z,4.64
2019-02-22T04:15:20.227Z,4.69
2019-02-22T04:16:20.225Z,4.61
2019-02-22T04:17:20.223Z,4.58
2019-02-22T04:18:20.205Z,4.62
2019-02-22T04:19:20.286Z,4.57
2019-02-22T04:20:20.175Z,4.52
2019-02-22T04:21:20.157Z,4.61
2019-02-22T04:22:20.156Z,4.55
2019-02-22T04:23:20.144Z,4.61
2019-02-22T04:24:20.223Z,4.61
2019-02-22T04:25:20.110Z,4.59
2019-02-22T04:26:20.112Z,4.58
2019-02-22T04:27:20.095Z,4.58
2019-02-22T04:28:20.172Z,4.58
2019-02-22T04:29:20.076Z,4.58
2019-02-22T04:30:20.059Z,4.55
2019-02-22T04:31:20.055Z,4.54
2019-02-22T04:32:20.059Z,4.58
2019-02-22T04:33:20.204Z,4.55
2019-02-22T04:34:20.097Z,4.55
2019-02-22T04:35:20.048Z,4.54
2019-02-22T04:36:19.995Z,4.59
2019-02-22T04:37:20.027Z,4.52
2019-02-22T04:38:19.983Z,4.58
2019-02-22T04:39:20.059Z,4.55
2019-02-22T04:40:19.968Z,4.42
2019-02-22T04:41:19.951Z,4.44
2019-02-22T04:42:19.950Z,4.55
2019-02-22T04:43:19.927Z,4.42
2019-02-22T04:44:20.015Z,4.54
2019-02-22T04:45:19.925Z,4.52
2019-02-22T04:46:19.914Z,4.55
2019-02-22T04:47:19.889Z,4.57
2019-02-22T04:48:19.881Z,4.55
2019-02-22T04:49:19.943Z,4.58
2019-02-22T04:50:19.870Z,4.57
2019-02-22T04:51:19.818Z,4.52
2019-02-22T04:52:19.815Z,4.50
2019-02-22T04:53:19.793Z,4.52
2019-02-22T04:54:19.835Z,4.58
2019-02-22T04:55:19.783Z,4.54
2019-02-22T04:56:19.770Z,4.55
2019-02-22T04:57:19.764Z,4.52
2019-02-22T04:58:19.755Z,4.51
2019-02-22T04:59:19.776Z,4.51
2019-02-22T05:00:19.736Z,4.52
2019-02-22T05:01:19.725Z,4.51
2019-02-22T05:02:19.713Z,4.58
2019-02-22T05:03:19.704Z,4.54
2019-02-22T05:04:19.714Z,4.54
2019-02-22T05:05:19.686Z,4.59
2019-02-22T05:06:19.660Z,4.59
2019-02-22T05:07:19.641Z,4.59
2019-02-22T05:08:19.645Z,4.59
2019-02-22T05:09:19.709Z,4.65
2019-02-22T05:10:19.646Z,4.70
2019-02-22T05:11:19.626Z,4.75
2019-02-22T05:12:19.598Z,4.73
2019-02-22T05:13:19.593Z,4.72
2019-02-22T05:14:19.582Z,4.70
2019-02-22T05:15:19.603Z,4.75
2019-02-22T05:16:19.592Z,4.72
2019-02-22T05:17:19.549Z,4.77
2019-02-22T05:18:19.570Z,4.79
2019-02-22T05:19:19.542Z,4.73
2019-02-22T05:20:19.524Z,4.77
2019-02-22T05:21:19.505Z,4.83
2019-02-22T05:22:19.524Z,4.77
2019-02-22T05:23:19.489Z,4.84
2019-02-22T05:24:19.471Z,4.89
2019-02-22T05:25:19.496Z,4.84
2019-02-22T05:26:19.452Z,4.84
2019-02-22T05:27:19.446Z,4.83
2019-02-22T05:28:19.419Z,4.84
2019-02-22T05:29:19.407Z,4.98
2019-02-22T05:30:19.473Z,5.02
2019-02-22T05:31:19.392Z,5.07
2019-02-22T05:32:19.400Z,5.19
2019-02-22T05:33:19.381Z,5.23
2019-02-22T05:34:19.357Z,5.35
2019-02-22T05:35:19.370Z,5.41
2019-02-22T05:36:19.350Z,5.35
2019-02-22T05:37:19.327Z,5.38
2019-02-22T05:38:19.344Z,5.38
2019-02-22T05:39:19.687Z,5.52
2019-02-22T05:40:19.337Z,5.50
2019-02-22T05:41:19.304Z,5.40
2019-02-22T05:42:22.925Z,5.50
2019-02-22T05:43:19.290Z,5.48
2019-02-22T05:44:19.266Z,5.46
2019-02-22T05:45:19.287Z,5.50
2019-02-22T05:46:19.243Z,5.52
2019-02-22T05:47:19.225Z,5.48
2019-02-22T05:48:19.229Z,5.52
2019-02-22T05:49:22.131Z,5.52
2019-02-22T05:50:19.230Z,5.50
2019-02-22T05:51:19.195Z,5.53
2019-02-22T05:52:19.230Z,5.48
2019-02-22T05:53:19.160Z,5.59
2019-02-22T05:54:19.157Z,5.45
2019-02-22T05:55:19.640Z,5.49
2019-02-22T05:56:19.140Z,5.38
2019-02-22T05:57:19.129Z,5.30
2019-02-22T05:58:19.140Z,5.34
2019-02-22T05:59:19.101Z,5.30
2019-02-22T06:00:19.158Z,5.28
2019-02-22T06:01:19.113Z,5.17
2019-02-22T06:02:19.074Z,5.17
2019-02-22T06:03:19.056Z,5.17
2019-02-22T06:04:19.069Z,5.16
2019-02-22T06:05:19.076Z,5.20
2019-02-22T06:06:19.028Z,5.22
2019-02-22T06:07:19.029Z,5.20
2019-02-22T06:08:19.016Z,5.22
2019-02-22T06:09:18.997Z,5.19
2019-02-22T06:10:19.018Z,5.14
2019-02-22T06:11:18.983Z,5.09
2019-02-22T06:12:18.982Z,5.10
2019-02-22T06:13:18.952Z,5.04
2019-02-22T06:14:18.949Z,4.95
2019-02-22T06:15:18.966Z,4.94
2019-02-22T06:16:18.923Z,4.95
2019-02-22T06:17:18.923Z,4.76
2019-02-22T06:18:18.907Z,4.79
2019-02-22T06:19:18.931Z,4.92
2019-02-22T06:20:18.914Z,4.88
2019-02-22T06:21:18.873Z,4.91
2019-02-22T06:22:28.949Z,4.89
2019-02-22T06:23:19.846Z,4.94
2019-02-22T06:24:18.843Z,4.89
2019-02-22T06:25:20.086Z,4.92
2019-02-22T06:26:18.823Z,4.94
2019-02-22T06:27:18.813Z,4.96
2019-02-22T06:28:18.795Z,5.07
2019-02-22T06:29:18.786Z,5.02
2019-02-22T06:30:18.824Z,4.95
2019-02-22T06:31:18.766Z,5.01
2019-02-22T06:32:18.760Z,4.98
2019-02-22T06:33:18.747Z,5.01
2019-02-22T06:34:18.734Z,5.02
2019-02-22T06:35:18.724Z,5.05
2019-02-22T06:36:18.757Z,4.98
2019-02-22T06:37:18.716Z,4.99
2019-02-22T06:38:18.698Z,5.02
2019-02-22T06:39:18.696Z,5.10
2019-02-22T06:40:18.686Z,5.01
2019-02-22T06:41:18.706Z,5.09
2019-02-22T06:42:18.659Z,5.02
2019-02-22T06:43:18.640Z,5.12
2019-02-22T06:44:18.637Z,5.09
2019-02-22T06:45:18.637Z,5.05
2019-02-22T06:46:18.645Z,5.12
2019-02-22T06:47:18.626Z,5.05
2019-02-22T06:48:18.603Z,5.05
2019-02-22T06:49:18.587Z,5.12
2019-02-22T06:50:18.574Z,5.05
2019-02-22T06:51:18.607Z,5.10
2019-02-22T06:52:18.551Z,5.04
2019-02-22T06:53:18.555Z,5.07
2019-02-22T06:54:18.523Z,5.09
2019-02-22T06:55:18.540Z,5.13
2019-02-22T06:56:18.517Z,5.13
2019-02-22T06:57:18.522Z,5.16
2019-02-22T06:58:18.540Z,5.14
2019-02-22T06:59:18.481Z,5.14
2019-02-22T07:00:18.479Z,5.16
2019-02-22T07:01:18.456Z,5.23
2019-02-22T07:02:18.444Z,5.27
2019-02-22T07:03:18.437Z,5.27
2019-02-22T07:04:18.456Z,5.35
2019-02-22T07:05:18.408Z,5.35
2019-02-22T07:06:18.436Z,5.50
2019-02-22T07:07:18.392Z,5.53
2019-02-22T07:08:18.381Z,5.43
2019-02-22T07:09:18.372Z,5.57
2019-02-22T07:10:18.446Z,5.45
2019-02-22T07:11:18.386Z,5.49
2019-02-22T07:12:18.341Z,5.53
2019-02-22T07:13:18.330Z,5.48
2019-02-22T07:14:18.330Z,5.52
2019-02-22T07:15:18.311Z,5.52
2019-02-22T07:16:18.323Z,5.53
2019-02-22T07:17:18.288Z,5.66
2019-02-22T07:18:18.275Z,5.70
2019-02-22T07:19:18.259Z,5.71
2019-02-22T07:20:18.249Z,5.75
2019-02-22T07:21:18.467Z,5.70
2019-02-22T07:22:18.226Z,5.75
2019-02-22T07:23:18.277Z,5.77
2019-02-22T07:24:18.218Z,5.81
2019-02-22T07:25:18.218Z,5.85
2019-02-22T07:26:18.191Z,5.83
2019-02-22T07:27:18.227Z,5.86
2019-02-22T07:28:18.166Z,5.91
2019-02-22T07:29:18.161Z,5.92
2019-02-22T07:30:18.155Z,5.98
2019-02-22T07:31:18.165Z,6.01
2019-02-22T07:32:18.128Z,5.92
2019-02-22T07:33:18.118Z,6.03
2019-02-22T07:34:18.115Z,6.13
2019-02-22T07:35:18.148Z,6.10
2019-02-22T07:36:18.195Z,6.18
2019-02-22T07:37:18.106Z,6.36
2019-02-22T07:38:18.071Z,6.38
2019-02-22T07:39:27.512Z,6.43
2019-02-22T07:40:20.004Z,6.44
2019-02-22T07:41:18.145Z,6.51
2019-02-22T07:42:18.025Z,6.46
2019-02-22T07:43:18.034Z,6.62
2019-02-22T07:44:18.005Z,6.56
2019-02-22T07:45:18.000Z,6.68
2019-02-22T07:46:17.981Z,6.65
2019-02-22T07:47:18.010Z,6.71
2019-02-22T07:48:17.967Z,6.76
2019-02-22T07:49:17.953Z,6.81
2019-02-22T07:50:17.946Z,6.76
2019-02-22T07:51:17.934Z,6.84
2019-02-22T07:52:17.994Z,6.91
2019-02-22T07:53:17.909Z,6.83
2019-02-22T07:54:17.903Z,6.86
2019-02-22T07:55:17.895Z,6.95
2019-02-22T07:56:19.225Z,6.98
2019-02-22T07:57:17.901Z,6.95
2019-02-22T07:58:17.875Z,6.95
2019-02-22T07:59:17.842Z,7.16
2019-02-22T08:00:17.886Z,7.15
2019-02-22T08:01:17.827Z,7.22
2019-02-22T08:02:17.816Z,7.20
2019-02-22T08:03:17.799Z,7.13
2019-02-22T08:04:17.788Z,7.19
2019-02-22T08:05:17.806Z,7.09
2019-02-22T08:06:17.783Z,7.07
2019-02-22T08:07:17.810Z,7.16
2019-02-22T08:08:17.749Z,7.22
2019-02-22T08:09:17.753Z,7.22
2019-02-22T08:10:17.727Z,7.37
2019-02-22T08:11:17.721Z,7.29
2019-02-22T08:12:18.157Z,7.37
2019-02-22T08:13:19.955Z,7.42
2019-02-22T08:14:17.685Z,7.45
2019-02-22T08:15:17.701Z,7.42
2019-02-22T08:16:17.669Z,7.53
2019-02-22T08:17:17.681Z,7.59
2019-02-22T08:18:17.648Z,7.60
2019-02-22T08:19:17.638Z,7.74
2019-02-22T08:20:17.621Z,7.84
2019-02-22T08:21:17.611Z,8.02
2019-02-22T08:22:17.625Z,8.07
2019-02-22T08:23:17.597Z,7.97
2019-02-22T08:24:17.574Z,8.00
2019-02-22T08:25:17.566Z,8.14
2019-02-22T08:26:17.562Z,8.14
2019-02-22T08:27:17.577Z,8.25
2019-02-22T08:28:17.541Z,8.21
2019-02-22T08:29:17.519Z,8.12
2019-02-22T08:30:17.549Z,8.12
2019-02-22T08:31:17.516Z,8.12
2019-02-22T08:32:17.516Z,8.29
2019-02-22T08:33:17.480Z,8.33
2019-02-22T08:34:17.476Z,8.40
2019-02-22T08:35:17.459Z,8.48
2019-02-22T08:36:17.457Z,8.47
2019-02-22T08:37:17.465Z,8.63
2019-02-22T08:38:17.483Z,8.73
2019-02-22T08:39:17.415Z,8.71
2019-02-22T08:40:17.419Z,8.79
2019-02-22T08:41:17.401Z,8.96
2019-02-22T08:42:17.429Z,9.02
2019-02-22T08:43:17.416Z,9.10
2019-02-22T08:44:17.376Z,9.13
2019-02-22T08:45:17.357Z,9.28
2019-02-22T08:46:17.347Z,9.39
2019-02-22T08:47:17.329Z,9.48
2019-02-22T08:48:17.457Z,9.52
2019-02-22T08:49:17.320Z,9.60
2019-02-22T08:50:17.300Z,9.49
2019-02-22T08:51:17.287Z,9.48
2019-02-22T08:52:17.322Z,9.48
2019-02-22T08:53:17.275Z,9.32
2019-02-22T08:54:17.265Z,9.23
2019-02-22T08:55:17.282Z,9.38
2019-02-22T08:56:17.239Z,9.42
2019-02-22T08:57:17.253Z,9.38
2019-02-22T08:58:17.220Z,9.46
2019-02-22T08:59:17.201Z,9.63
2019-02-22T09:00:17.218Z,9.61
2019-02-22T09:01:17.182Z,9.50
2019-02-22T09:02:17.214Z,9.52
2019-02-22T09:03:17.165Z,9.52
2019-02-22T09:04:17.186Z,9.45
2019-02-22T09:05:17.144Z,9.49
2019-02-22T09:06:17.130Z,9.42
2019-02-22T09:07:17.120Z,9.32
2019-02-22T09:08:17.121Z,9.34
2019-02-22T09:09:17.107Z,9.27
2019-02-22T09:10:17.128Z,9.39
2019-02-22T09:11:17.079Z,9.53
2019-02-22T09:12:17.080Z,9.48
2019-02-22T09:13:17.058Z,9.53
2019-02-22T09:14:17.044Z,9.71
2019-02-22T09:15:17.120Z,9.81
2019-02-22T09:16:17.024Z,9.97
2019-02-22T09:17:17.012Z,10.15
2019-02-22T09:18:17.004Z,10.22
2019-02-22T09:19:17.015Z,10.32
2019-02-22T09:20:17.011Z,10.33
2019-02-22T09:21:16.970Z,10.39
2019-02-22T09:22:22.883Z,10.47
2019-02-22T09:23:17.944Z,10.66
2019-02-22T09:24:16.969Z,10.91
2019-02-22T09:25:16.952Z,10.95
2019-02-22T09:26:16.938Z,10.98
2019-02-22T09:27:16.906Z,11.06
2019-02-22T09:28:16.935Z,10.98
2019-02-22T09:29:17.018Z,10.98
2019-02-22T09:30:16.879Z,10.95
2019-02-22T09:31:16.916Z,10.86
2019-02-22T09:32:16.854Z,10.81
2019-02-22T09:33:16.870Z,10.86
2019-02-22T09:34:16.833Z,10.83
2019-02-22T09:35:16.833Z,10.83
2019-02-22T09:36:16.817Z,10.74
2019-02-22T09:37:16.795Z,10.74
2019-02-22T09:38:16.824Z,10.65
2019-02-22T09:39:16.777Z,10.66
2019-02-22T09:40:16.790Z,10.70
2019-02-22T09:41:16.758Z,10.62
2019-02-22T09:42:16.750Z,10.76
2019-02-22T09:43:16.774Z,10.88
2019-02-22T09:44:16.727Z,10.91
2019-02-22T09:45:16.713Z,11.03
2019-02-22T09:46:16.716Z,11.09
2019-02-22T09:47:16.694Z,11.27
2019-02-22T09:48:16.712Z,11.34
2019-02-22T09:49:16.685Z,11.57
2019-02-22T09:50:16.667Z,11.67
2019-02-22T09:51:16.659Z,11.74
2019-02-22T09:52:16.645Z,11.83
2019-02-22T09:53:16.888Z,11.97
2019-02-22T09:54:16.618Z,12.04
2019-02-22T09:55:16.610Z,12.16
2019-02-22T09:56:16.602Z,12.19
2019-02-22T09:57:16.602Z,12.09
2019-02-22T09:58:16.573Z,12.26
2019-02-22T09:59:16.590Z,12.27
2019-02-22T10:00:16.656Z,12.39
2019-02-22T10:01:16.549Z,12.34
2019-02-22T10:02:16.541Z,12.24
2019-02-22T10:03:16.556Z,12.24
2019-02-22T10:04:16.521Z,12.26
2019-02-22T10:05:16.508Z,12.29
2019-02-22T10:06:16.490Z,12.26
2019-02-22T10:07:16.489Z,12.31
2019-02-22T10:08:16.518Z,12.39
2019-02-22T10:09:16.469Z,12.27
2019-02-22T10:10:16.481Z,12.27
2019-02-22T10:11:16.443Z,12.13
2019-02-22T10:12:16.429Z,12.16
2019-02-22T10:13:16.418Z,12.21
2019-02-22T10:14:16.415Z,12.23
2019-02-22T10:15:16.402Z,12.13
2019-02-22T10:16:16.536Z,12.11
2019-02-22T10:17:16.367Z,12.06
2019-02-22T10:18:16.366Z,12.08
2019-02-22T10:19:16.350Z,12.08
2019-02-22T10:20:16.637Z,12.08
2019-02-22T10:21:16.326Z,12.06
2019-02-22T10:22:16.315Z,12.26
2019-02-22T10:23:16.314Z,12.33
2019-02-22T10:24:17.101Z,12.63
2019-02-22T10:25:16.346Z,12.60
2019-02-22T10:26:17.097Z,12.57
2019-02-22T10:27:16.295Z,12.66
2019-02-22T10:28:18.078Z,12.64
2019-02-22T10:29:17.112Z,12.93
2019-02-22T10:30:16.268Z,12.89
2019-02-22T10:31:16.298Z,12.89
2019-02-22T10:32:17.104Z,12.95
2019-02-22T10:33:16.304Z,12.84
2019-02-22T10:34:16.196Z,12.89
2019-02-22T10:35:16.182Z,12.74
2019-02-22T10:36:16.172Z,12.78
2019-02-22T10:37:16.177Z,12.64
2019-02-22T10:38:16.387Z,12.70
2019-02-22T10:39:16.159Z,13.00
2019-02-22T10:40:16.123Z,13.04
2019-02-22T10:41:16.117Z,13.11
2019-02-22T10:42:16.103Z,13.09
2019-02-22T10:43:16.095Z,13.20
2019-02-22T10:44:17.970Z,13.54
2019-02-22T10:45:16.081Z,13.77
2019-02-22T10:46:16.101Z,14.13
2019-02-22T10:47:16.054Z,14.37
2019-02-22T10:48:16.052Z,14.46
2019-02-22T10:49:16.027Z,14.50
2019-02-22T10:50:16.046Z,14.62
2019-02-22T10:51:16.009Z,14.80
2019-02-22T10:52:16.009Z,14.90
2019-02-22T10:53:15.996Z,15.02
2019-02-22T10:54:16.004Z,15.24
2019-02-22T10:55:15.967Z,15.49
2019-02-22T10:56:15.955Z,15.54
2019-02-22T10:57:15.947Z,15.75
2019-02-22T10:58:15.934Z,15.84
2019-02-22T10:59:15.945Z,15.94
2019-02-22T11:00:15.922Z,16.20
2019-02-22T11:01:15.910Z,16.50
2019-02-22T11:02:15.890Z,16.52
2019-02-22T11:03:15.884Z,16.71
2019-02-22T11:04:15.925Z,16.93
2019-02-22T11:05:15.876Z,17.13
2019-02-22T11:06:15.855Z,17.50
2019-02-22T11:07:15.850Z,17.50
2019-02-22T11:08:15.832Z,17.48
2019-02-22T11:09:15.863Z,17.47
2019-02-22T11:10:15.802Z,17.54
2019-02-22T11:11:15.808Z,17.63
2019-02-22T11:12:15.788Z,17.71
2019-02-22T11:13:15.807Z,17.64
2019-02-22T11:14:15.805Z,17.69
2019-02-22T11:15:15.759Z,17.82
2019-02-22T11:16:15.739Z,18.15
2019-02-22T11:17:15.728Z,18.33
2019-02-22T11:18:15.722Z,18.62
2019-02-22T11:19:15.744Z,19.13
2019-02-22T11:20:15.707Z,19.48
2019-02-22T11:21:15.687Z,19.50
2019-02-22T11:22:15.685Z,19.10
2019-02-22T11:23:15.671Z,18.40
2019-02-22T11:24:15.685Z,17.79
2019-02-22T11:25:15.645Z,17.43
2019-02-22T11:26:15.651Z,16.14
2019-02-22T11:27:15.620Z,15.67
2019-02-22T11:28:15.618Z,15.96
2019-02-22T11:29:15.631Z,16.03
2019-02-22T11:30:15.598Z,16.06
2019-02-22T11:31:17.349Z,16.11
2019-02-22T11:32:15.570Z,16.15
2019-02-22T11:33:15.565Z,16.37
2019-02-22T11:34:15.583Z,16.62
2019-02-22T11:35:15.583Z,16.75
2019-02-22T11:36:15.522Z,16.88
2019-02-22T11:37:15.509Z,16.93
2019-02-22T11:38:15.505Z,16.59
2019-02-22T11:39:15.529Z,16.22
2019-02-22T11:40:15.490Z,16.07
2019-02-22T11:41:15.480Z,15.66
2019-02-22T11:42:15.465Z,15.64
2019-02-22T11:43:15.452Z,15.51
2019-02-22T11:44:15.484Z,15.94
2019-02-22T11:45:15.440Z,16.30
2019-02-22T11:46:15.425Z,16.59
2019-02-22T11:47:15.411Z,16.59
2019-02-22T11:48:15.427Z,16.11
2019-02-22T11:49:15.423Z,16.18
2019-02-22T11:50:15.373Z,16.14
2019-02-22T11:51:15.400Z,16.38
2019-02-22T11:52:15.357Z,16.83
2019-02-22T11:53:15.352Z,17.04
2019-02-22T11:54:15.383Z,17.26
2019-02-22T11:55:15.366Z,17.41
2019-02-22T11:56:15.402Z,17.41
2019-02-22T11:57:15.326Z,17.43
2019-02-22T11:58:15.290Z,17.46
2019-02-22T11:59:15.349Z,16.89
2019-02-22T12:00:15.406Z,16.71
2019-02-22T12:01:15.265Z,16.70
2019-02-22T12:02:15.260Z,16.58
2019-02-22T12:03:24.234Z,16.40
2019-02-22T12:04:16.278Z,16.56
2019-02-22T12:05:15.239Z,16.98
2019-02-22T12:06:15.243Z,16.98
2019-02-22T12:07:15.205Z,17.32
2019-02-22T12:08:15.187Z,17.59
2019-02-22T12:09:15.185Z,17.88
2019-02-22T12:10:15.190Z,17.79
2019-02-22T12:11:15.170Z,18.09
2019-02-22T12:12:15.204Z,17.62
2019-02-22T12:13:15.137Z,17.08
2019-02-22T12:14:15.147Z,16.83
2019-02-22T12:15:15.119Z,16.62
2019-02-22T12:16:15.108Z,16.63
2019-02-22T12:17:15.092Z,16.53
2019-02-22T12:18:15.083Z,16.50
2019-02-22T12:19:15.109Z,16.67
2019-02-22T12:20:15.062Z,16.67
2019-02-22T12:21:15.052Z,16.80
2019-02-22T12:22:15.044Z,16.62
2019-02-22T12:23:15.055Z,17.20
2019-02-22T12:24:15.026Z,18.47
2019-02-22T12:25:15.006Z,19.50
2019-02-22T12:26:14.997Z,19.23
2019-02-22T12:27:15.002Z,18.92
2019-02-22T12:28:14.995Z,18.39
2019-02-22T12:29:14.975Z,17.95
2019-02-22T12:30:14.953Z,17.35
2019-02-22T12:31:14.946Z,16.93
2019-02-22T12:32:15.068Z,16.71
2019-02-22T12:33:14.961Z,16.89
2019-02-22T12:34:14.917Z,17.46
2019-02-22T12:35:14.908Z,17.95
2019-02-22T12:36:14.889Z,18.33
2019-02-22T12:37:14.870Z,19.02
2019-02-22T12:38:14.899Z,19.60
2019-02-22T12:39:14.849Z,19.38
2019-02-22T12:40:14.842Z,18.34
2019-02-22T12:41:14.834Z,17.28
2019-02-22T12:42:14.818Z,16.27
2019-02-22T12:43:14.847Z,15.74
2019-02-22T12:44:14.804Z,15.54
2019-02-22T12:45:14.800Z,15.45
2019-02-22T12:46:14.774Z,15.30
2019-02-22T12:47:14.768Z,14.81
2019-02-22T12:48:14.756Z,14.46
2019-02-22T12:49:14.777Z,14.46
2019-02-22T12:50:14.734Z,14.35
2019-02-22T12:51:14.738Z,14.29
2019-02-22T12:52:14.721Z,13.89
2019-02-22T12:53:14.705Z,13.77
2019-02-22T12:54:14.729Z,13.84
2019-02-22T12:55:14.683Z,13.92
2019-02-22T12:56:14.672Z,13.92
2019-02-22T12:57:14.667Z,13.91
2019-02-22T12:58:14.653Z,13.96
2019-02-22T12:59:14.681Z,14.06
2019-02-22T13:00:14.632Z,14.04
2019-02-22T13:01:14.620Z,14.07
2019-02-22T13:02:14.612Z,14.25
2019-02-22T13:03:14.589Z,14.29
2019-02-22T13:04:14.637Z,14.46
2019-02-22T13:05:14.574Z,14.72
2019-02-22T13:06:14.561Z,14.50
2019-02-22T13:07:14.550Z,14.44
2019-02-22T13:08:14.542Z,14.56
2019-02-22T13:09:14.550Z,14.65
2019-02-22T13:10:14.516Z,14.67